Time;durP1;ratioP1;P1;durP2;ratioP2;P2;SDS_P1;SDS_P2;PMS_P1;PMS_P2;Temp;Humidity;BMP_temperature;BMP_pressure;BME280_temperature;BME280_humidity;BME280_pressure;Samples;Min_cycle;Max_cycle;Signal;HPM_P1;HPM_P2
2021/11/15 00:00:30;;;;;;;24.87;22.63;;;10.50;99.90;;;;;;5071144;28;20491;-75
2021/11/15 00:02:58;;;;;;;24.90;22.63;;;10.50;99.90;;;;;;5070736;28;20512;-75
2021/11/15 00:05:25;;;;;;;24.40;21.93;;;10.50;99.90;;;;;;5070850;28;20998;-75
2021/11/15 00:07:52;;;;;;;25.33;22.93;;;10.30;99.90;;;;;;5071051;28;20463;-75
2021/11/15 00:10:19;;;;;;;25.03;22.30;;;10.30;99.90;;;;;;5071221;28;20462;-75
2021/11/15 00:12:51;;;;;;;23.20;21.10;;;10.20;99.90;;;;;;5070858;28;20450;-76
2021/11/15 00:15:18;;;;;;;24.03;21.83;;;10.20;99.90;;;;;;5070844;28;20489;-76
2021/11/15 00:17:45;;;;;;;24.93;22.70;;;10.20;99.90;;;;;;5070761;28;20455;-76
2021/11/15 00:20:12;;;;;;;24.73;22.23;;;10.30;99.90;;;;;;5070840;28;20999;-77
2021/11/15 00:22:39;;;;;;;23.23;21.13;;;10.30;99.90;;;;;;5070842;28;20486;-77
2021/11/15 00:25:07;;;;;;;23.43;21.30;;;10.30;99.90;;;;;;5070406;28;20451;-76
2021/11/15 00:27:34;;;;;;;22.83;20.73;;;10.30;99.90;;;;;;5070056;28;20447;-76
2021/11/15 00:30:02;;;;;;;22.90;20.80;;;10.30;99.90;;;;;;5070667;28;20466;-76
2021/11/15 00:32:29;;;;;;;22.93;20.93;;;10.40;99.90;;;;;;5070689;28;20450;-78
2021/11/15 00:34:56;;;;;;;24.10;21.90;;;10.30;99.90;;;;;;5070561;28;20468;-77
2021/11/15 00:37:23;;;;;;;25.00;22.70;;;10.20;99.90;;;;;;5070441;28;20459;-74
2021/11/15 00:39:50;;;;;;;25.43;23.10;;;10.30;99.90;;;;;;5070722;28;20479;-74
2021/11/15 00:42:17;;;;;;;22.60;20.50;;;10.30;99.90;;;;;;5070955;28;20476;-76
2021/11/15 00:44:44;;;;;;;24.63;22.50;;;10.20;99.90;;;;;;5070538;28;20449;-76
2021/11/15 00:47:12;;;;;;;24.80;22.60;;;10.10;99.90;;;;;;5070517;28;20524;-75
2021/11/15 00:49:39;;;;;;;22.70;20.70;;;10.10;99.90;;;;;;5070321;28;20446;-75
2021/11/15 00:52:06;;;;;;;23.93;21.50;;;10.00;99.90;;;;;;5070730;28;20481;-74
2021/11/15 00:54:35;;;;;;;23.37;21.27;;;10.10;99.90;;;;;;5070362;28;20457;-74
2021/11/15 00:57:02;;;;;;;25.93;23.73;;;10.00;99.90;;;;;;5070412;28;20455;-74
2021/11/15 00:59:29;;;;;;;22.33;20.43;;;9.90;99.90;;;;;;5070451;28;20493;-75
2021/11/15 01:01:56;;;;;;;25.07;22.77;;;10.00;99.90;;;;;;5070260;28;20543;-76
2021/11/15 01:04:25;;;;;;;23.23;21.03;;;10.00;99.90;;;;;;5070510;28;20742;-75
2021/11/15 01:06:53;;;;;;;22.27;20.37;;;10.00;99.90;;;;;;5070438;28;20841;-75
2021/11/15 01:09:20;;;;;;;22.63;20.60;;;9.90;99.90;;;;;;5070477;28;20465;-76
2021/11/15 01:11:46;;;;;;;21.40;19.43;;;9.90;99.90;;;;;;5070376;28;20458;-75
2021/11/15 01:14:13;;;;;;;23.67;21.70;;;10.00;99.90;;;;;;5070482;28;20446;-75
2021/11/15 01:16:40;;;;;;;21.70;19.97;;;9.90;99.90;;;;;;5070195;28;20843;-75
2021/11/15 01:19:07;;;;;;;22.67;20.43;;;10.00;99.90;;;;;;5070216;28;20463;-75
2021/11/15 01:21:35;;;;;;;21.93;19.80;;;10.00;99.90;;;;;;5070457;28;20458;-77
2021/11/15 01:24:02;;;;;;;22.17;20.27;;;10.00;99.90;;;;;;5070038;28;20540;-75
2021/11/15 01:26:28;;;;;;;21.53;19.67;;;10.00;99.90;;;;;;5070038;28;20447;-74
2021/11/15 01:28:55;;;;;;;21.97;19.97;;;10.00;99.90;;;;;;5069967;28;20761;-76
2021/11/15 01:31:22;;;;;;;20.97;19.27;;;10.00;99.90;;;;;;5069893;28;20532;-74
2021/11/15 01:33:49;;;;;;;20.90;18.90;;;10.10;99.90;;;;;;5070163;28;20451;-75
2021/11/15 01:36:15;;;;;;;22.03;20.00;;;9.90;99.90;;;;;;5069894;28;20878;-74
2021/11/15 01:38:44;;;;;;;21.73;19.80;;;9.80;99.90;;;;;;5071831;28;20501;-75
2021/11/15 01:41:10;;;;;;;20.70;18.90;;;9.80;99.90;;;;;;5073717;28;20536;-75
2021/11/15 01:43:37;;;;;;;19.90;18.20;;;9.80;99.90;;;;;;5073614;28;20533;-74
2021/11/15 01:46:05;;;;;;;20.83;19.23;;;9.70;99.90;;;;;;5073461;28;20454;-74
2021/11/15 01:48:32;;;;;;;20.83;19.33;;;9.70;99.90;;;;;;5073638;28;20461;-74
2021/11/15 01:50:58;;;;;;;19.47;17.97;;;9.70;99.90;;;;;;5073616;28;20481;-73
2021/11/15 01:53:25;;;;;;;19.77;18.17;;;9.60;99.90;;;;;;5073443;28;20874;-74
2021/11/15 01:55:54;;;;;;;21.10;19.17;;;9.70;99.90;;;;;;5073235;28;20455;-73
2021/11/15 01:58:20;;;;;;;20.40;18.60;;;9.70;99.90;;;;;;5073405;28;20451;-74
2021/11/15 02:00:49;;;;;;;20.03;18.37;;;9.80;99.90;;;;;;5073661;28;20474;-74
2021/11/15 02:03:17;;;;;;;20.90;19.30;;;9.80;99.90;;;;;;5073411;28;20447;-75
2021/11/15 02:05:45;;;;;;;19.00;17.43;;;9.60;99.90;;;;;;5073409;28;20520;-75
2021/11/15 02:08:11;;;;;;;19.63;17.93;;;9.60;99.90;;;;;;5073128;28;20460;-75
2021/11/15 02:10:39;;;;;;;18.37;16.97;;;9.70;99.90;;;;;;5073224;28;20925;-75
2021/11/15 02:13:07;;;;;;;18.27;16.67;;;9.60;99.90;;;;;;5073052;28;20459;-75
2021/11/15 02:15:34;;;;;;;19.50;17.90;;;9.60;99.90;;;;;;5072879;28;20452;-75
2021/11/15 02:18:01;;;;;;;19.63;18.10;;;9.70;99.90;;;;;;5073246;28;20497;-75
2021/11/15 02:20:45;;;;;;;18.40;17.10;;;9.70;99.90;;;;;;5073080;28;20479;-75
2021/11/15 02:23:12;;;;;;;19.20;17.90;;;9.80;99.90;;;;;;5072959;28;20483;-74
2021/11/15 02:25:39;;;;;;;20.50;18.97;;;9.70;99.90;;;;;;5072840;28;20534;-75
2021/11/15 02:28:06;;;;;;;19.23;17.70;;;9.70;99.90;;;;;;5073347;28;20461;-74
2021/11/15 02:30:34;;;;;;;19.20;17.70;;;9.70;99.90;;;;;;5072772;28;20467;-75
2021/11/15 02:33:01;;;;;;;18.67;17.17;;;9.70;99.90;;;;;;5072851;28;20447;-75
2021/11/15 02:35:30;;;;;;;19.17;17.67;;;9.70;99.90;;;;;;5072926;28;20451;-75
2021/11/15 02:37:57;;;;;;;19.20;17.70;;;9.60;99.90;;;;;;5072680;28;20459;-75
2021/11/15 02:40:26;;;;;;;18.80;17.50;;;9.60;99.90;;;;;;5072483;28;20490;-74
2021/11/15 02:42:54;;;;;;;20.37;18.77;;;9.70;99.90;;;;;;5072459;28;20476;-74
2021/11/15 02:45:22;;;;;;;19.43;17.73;;;9.70;99.90;;;;;;5072763;28;20848;-74
2021/11/15 02:47:49;;;;;;;20.60;18.90;;;9.70;99.90;;;;;;5072376;28;20455;-74
2021/11/15 02:50:20;;;;;;;18.50;17.07;;;9.70;99.90;;;;;;5071857;28;20455;-74
2021/11/15 02:52:50;;;;;;;19.97;18.33;;;9.60;99.90;;;;;;5072389;28;20451;-73
2021/11/15 02:55:17;;;;;;;20.07;18.50;;;9.50;99.90;;;;;;5072372;28;20450;-74
2021/11/15 02:57:44;;;;;;;18.93;17.50;;;9.50;99.90;;;;;;5072215;28;20464;-73
2021/11/15 03:00:19;;;;;;;20.37;18.57;;;9.50;99.90;;;;;;5072346;28;20598;-74
2021/11/15 03:02:46;;;;;;;19.90;18.40;;;9.50;99.90;;;;;;5072244;28;20450;-74
2021/11/15 03:05:13;;;;;;;20.20;18.40;;;9.60;99.90;;;;;;5072230;28;20458;-75
2021/11/15 03:07:45;;;;;;;19.40;18.00;;;9.70;99.90;;;;;;5072130;28;20463;-74
2021/11/15 03:10:13;;;;;;;20.63;18.97;;;9.70;99.90;;;;;;5071829;28;20501;-74
2021/11/15 03:12:40;;;;;;;22.43;20.70;;;9.70;99.90;;;;;;5071960;28;20447;-74
2021/11/15 03:15:08;;;;;;;22.93;20.73;;;9.70;99.90;;;;;;5072076;28;20839;-74
2021/11/15 03:17:39;;;;;;;21.87;20.10;;;9.70;99.90;;;;;;5071806;28;20941;-74
2021/11/15 03:20:07;;;;;;;19.93;18.43;;;9.60;99.90;;;;;;5071588;28;20487;-74
2021/11/15 03:22:34;;;;;;;19.60;18.07;;;9.60;99.90;;;;;;5071654;28;20539;-74
2021/11/15 03:25:01;;;;;;;19.67;18.07;;;9.70;99.90;;;;;;5071626;28;20459;-74
2021/11/15 03:27:35;;;;;;;19.03;17.50;;;9.80;99.90;;;;;;5071653;28;20936;-74
2021/11/15 03:30:05;;;;;;;21.83;19.93;;;9.90;99.90;;;;;;5071494;28;21181;-75
2021/11/15 03:32:31;;;;;;;24.43;22.43;;;9.80;99.90;;;;;;5072130;28;20462;-76
2021/11/15 03:35:01;;;;;;;22.60;20.80;;;9.80;99.90;;;;;;5071758;28;20945;-75
2021/11/15 03:37:28;;;;;;;23.40;21.20;;;9.80;99.90;;;;;;5072190;28;20455;-75
2021/11/15 03:39:55;;;;;;;23.30;21.23;;;9.70;99.90;;;;;;5071783;28;20483;-75
2021/11/15 03:42:23;;;;;;;22.60;20.60;;;9.70;99.90;;;;;;5072110;28;20779;-75
2021/11/15 03:44:51;;;;;;;23.47;21.50;;;9.70;99.90;;;;;;5071799;28;20539;-72
2021/11/15 03:47:17;;;;;;;23.40;21.43;;;9.60;99.90;;;;;;5071735;28;20458;-72
2021/11/15 03:49:44;;;;;;;22.00;20.10;;;9.60;99.90;;;;;;5071845;28;20516;-72
2021/11/15 03:52:11;;;;;;;19.67;18.17;;;9.60;99.90;;;;;;5072081;28;20454;-73
2021/11/15 03:54:38;;;;;;;20.90;19.10;;;9.50;99.90;;;;;;5071562;28;20455;-73
2021/11/15 03:57:05;;;;;;;21.87;20.13;;;9.40;99.90;;;;;;5071300;28;20451;-73
2021/11/15 03:59:31;;;;;;;21.07;19.33;;;9.30;99.90;;;;;;5071629;28;20470;-75
2021/11/15 04:01:59;;;;;;;21.83;19.93;;;9.20;99.90;;;;;;5070641;28;20487;-75
2021/11/15 04:04:31;;;;;;;21.13;19.23;;;9.30;99.90;;;;;;5071597;28;20452;-76
2021/11/15 04:06:58;;;;;;;20.90;19.17;;;9.20;99.90;;;;;;5071226;28;20455;-75
2021/11/15 04:09:24;;;;;;;20.97;19.20;;;9.20;99.90;;;;;;5071398;28;20554;-76
2021/11/15 04:11:51;;;;;;;19.70;18.00;;;9.30;99.90;;;;;;5071396;28;20443;-76
2021/11/15 04:14:18;;;;;;;21.60;19.80;;;9.30;99.90;;;;;;5071461;28;20451;-76
2021/11/15 04:16:46;;;;;;;21.10;19.33;;;9.20;99.90;;;;;;5071343;28;20452;-75
2021/11/15 04:19:17;;;;;;;19.57;18.03;;;9.20;99.90;;;;;;5071192;28;20808;-74
2021/11/15 04:21:44;;;;;;;22.20;20.10;;;9.30;99.90;;;;;;5071188;28;20490;-76
2021/11/15 04:24:11;;;;;;;20.53;18.93;;;9.40;99.90;;;;;;5071525;28;20482;-84
2021/11/15 04:26:38;;;;;;;21.80;20.10;;;9.40;99.90;;;;;;5072270;28;20462;-79
2021/11/15 04:29:04;;;;;;;21.53;19.63;;;9.30;99.90;;;;;;5071178;28;20451;-78
2021/11/15 04:31:31;;;;;;;21.17;19.37;;;9.30;99.90;;;;;;5070750;28;20513;-76
2021/11/15 04:33:58;;;;;;;21.77;19.77;;;9.30;99.90;;;;;;5070866;28;20455;-78
2021/11/15 04:36:26;;;;;;;22.83;21.00;;;9.20;99.90;;;;;;5071063;28;20868;-78
2021/11/15 04:38:53;;;;;;;20.77;19.03;;;9.20;99.90;;;;;;5071301;28;20878;-78
2021/11/15 04:41:20;;;;;;;22.90;20.87;;;9.10;99.90;;;;;;5070999;28;20494;-80
2021/11/15 04:43:48;;;;;;;20.37;18.87;;;9.10;99.90;;;;;;5070954;28;20853;-80
2021/11/15 04:46:15;;;;;;;21.27;19.47;;;9.20;99.90;;;;;;5071159;28;20517;-80
2021/11/15 04:48:43;;;;;;;21.20;19.47;;;9.20;99.90;;;;;;5071273;28;21035;-80
2021/11/15 04:51:10;;;;;;;21.20;19.40;;;9.20;99.90;;;;;;5071147;28;20542;-79
2021/11/15 04:53:38;;;;;;;21.20;19.63;;;9.10;99.90;;;;;;5070553;28;20467;-78
2021/11/15 04:56:07;;;;;;;20.23;18.50;;;9.10;99.90;;;;;;5070981;28;20500;-79
2021/11/15 04:58:34;;;;;;;19.80;18.20;;;9.10;99.90;;;;;;5070815;28;20849;-80
2021/11/15 05:01:00;;;;;;;19.87;18.20;;;9.10;99.90;;;;;;5070688;28;20817;-76
2021/11/15 05:03:27;;;;;;;20.17;18.57;;;9.10;99.90;;;;;;5070720;28;20496;-75
2021/11/15 05:05:54;;;;;;;22.00;20.17;;;9.10;99.90;;;;;;5070839;28;20972;-80
2021/11/15 05:08:21;;;;;;;21.97;20.17;;;9.20;99.90;;;;;;5070876;28;20517;-83
2021/11/15 05:10:49;;;;;;;20.50;18.83;;;9.20;99.90;;;;;;5071344;28;20978;-82
2021/11/15 05:13:16;;;;;;;20.87;19.10;;;9.20;99.90;;;;;;5072358;28;20492;-74
2021/11/15 05:15:42;;;;;;;20.73;19.03;;;9.20;99.90;;;;;;5074921;28;20810;-79
2021/11/15 05:18:09;;;;;;;21.93;19.93;;;9.20;99.90;;;;;;5074750;28;20451;-79
2021/11/15 05:20:36;;;;;;;20.73;19.10;;;9.10;99.90;;;;;;5074548;28;20841;-76
2021/11/15 05:23:03;;;;;;;20.93;19.10;;;9.20;99.90;;;;;;5074447;28;20528;-76
2021/11/15 05:25:30;;;;;;;22.43;20.40;;;9.20;99.90;;;;;;5074110;28;21299;-77
2021/11/15 05:27:58;;;;;;;19.73;18.10;;;9.10;99.90;;;;;;5074085;28;20509;-76
2021/11/15 05:30:24;;;;;;;19.80;18.30;;;9.10;99.90;;;;;;5071533;28;20573;-81
2021/11/15 05:32:55;;;;;;;20.13;18.50;;;9.10;99.90;;;;;;5063275;28;20485;-76
2021/11/15 05:35:22;;;;;;;19.97;18.17;;;9.20;99.90;;;;;;5054139;28;20444;-79
2021/11/15 05:37:49;;;;;;;22.30;20.10;;;9.30;99.90;;;;;;5054512;28;20810;-76
2021/11/15 05:40:17;;;;;;;19.00;17.67;;;9.40;99.90;;;;;;5054198;28;20505;-75
2021/11/15 05:42:44;;;;;;;22.10;20.37;;;9.40;99.90;;;;;;5053858;28;20449;-76
2021/11/15 05:45:13;;;;;;;19.97;18.23;;;9.40;99.90;;;;;;5053428;28;20459;-78
2021/11/15 05:47:40;;;;;;;19.83;18.13;;;9.50;99.90;;;;;;5053493;28;20450;-78
2021/11/15 05:50:09;;;;;;;21.83;19.97;;;9.50;99.90;;;;;;5053683;28;20452;-78
2021/11/15 05:52:42;;;;;;;20.80;19.20;;;9.60;99.90;;;;;;5053840;28;20444;-78
2021/11/15 05:55:11;;;;;;;20.43;18.73;;;9.60;99.90;;;;;;5053739;28;20448;-78
2021/11/15 05:57:38;;;;;;;22.53;20.63;;;9.50;99.90;;;;;;5053572;28;20452;-78
2021/11/15 06:00:08;;;;;;;22.30;20.23;;;9.50;99.90;;;;;;5053654;28;20451;-78
2021/11/15 06:02:36;;;;;;;21.80;19.70;;;9.50;99.90;;;;;;5053444;28;20491;-78
2021/11/15 06:05:03;;;;;;;21.00;19.00;;;9.40;99.90;;;;;;5053596;28;20482;-78
2021/11/15 06:07:30;;;;;;;20.90;19.07;;;9.30;99.90;;;;;;5053727;28;20857;-78
2021/11/15 06:09:57;;;;;;;20.50;18.80;;;9.10;99.90;;;;;;5053457;28;20456;-79
2021/11/15 06:12:23;;;;;;;20.53;18.80;;;9.10;99.90;;;;;;5053311;28;20448;-78
2021/11/15 06:14:50;;;;;;;21.07;19.30;;;9.10;99.90;;;;;;5053234;28;20456;-78
2021/11/15 06:17:17;;;;;;;21.27;19.57;;;9.10;99.90;;;;;;5053105;28;20452;-77
2021/11/15 06:19:45;;;;;;;22.07;20.10;;;9.10;99.90;;;;;;5053317;28;20448;-78
2021/11/15 06:22:12;;;;;;;21.67;19.90;;;9.10;99.90;;;;;;5052776;28;20534;-79
2021/11/15 06:24:41;;;;;;;20.90;19.10;;;9.10;99.90;;;;;;5051992;28;20456;-78
2021/11/15 06:27:08;;;;;;;21.90;20.03;;;9.10;99.90;;;;;;5052967;28;20456;-76
2021/11/15 06:29:34;;;;;;;21.40;19.40;;;9.10;99.90;;;;;;5051202;28;20629;-76
2021/11/15 06:32:01;;;;;;;22.40;20.23;;;9.10;99.90;;;;;;5053162;28;20475;-76
2021/11/15 06:34:28;;;;;;;20.40;18.70;;;9.00;99.90;;;;;;5053344;28;20934;-77
2021/11/15 06:36:56;;;;;;;23.37;21.33;;;9.10;99.90;;;;;;5053338;28;20502;-77
2021/11/15 06:39:25;;;;;;;20.53;19.00;;;9.10;99.90;;;;;;5061343;28;20961;-77
2021/11/15 06:41:54;;;;;;;21.37;19.57;;;9.10;99.90;;;;;;5073135;28;20538;-77
2021/11/15 06:44:20;;;;;;;22.50;20.33;;;9.10;99.90;;;;;;5073175;28;20443;-76
2021/11/15 06:46:47;;;;;;;20.77;18.97;;;9.00;99.90;;;;;;5072969;28;20861;-76
2021/11/15 06:49:14;;;;;;;22.63;20.90;;;9.00;99.90;;;;;;5073219;28;20504;-76
2021/11/15 06:51:41;;;;;;;22.77;20.67;;;9.10;99.90;;;;;;5072993;28;20474;-78
2021/11/15 06:54:10;;;;;;;21.40;19.20;;;9.10;99.90;;;;;;5072984;28;20451;-77
2021/11/15 06:56:37;;;;;;;20.40;18.53;;;9.00;99.90;;;;;;5072960;28;20447;-75
2021/11/15 06:59:04;;;;;;;24.23;21.77;;;9.00;99.90;;;;;;5072878;28;21060;-74
2021/11/15 07:01:34;;;;;;;22.80;20.70;;;9.10;99.90;;;;;;5072601;28;20506;-75
2021/11/15 07:04:01;;;;;;;20.63;18.80;;;9.10;99.90;;;;;;5072886;28;20831;-76
2021/11/15 07:06:28;;;;;;;22.70;20.70;;;9.20;99.90;;;;;;5072753;28;20454;-76
2021/11/15 07:08:54;;;;;;;20.33;18.63;;;9.20;99.90;;;;;;5072736;28;20451;-77
